N4JP KEYW-KEWR
Flight info
| Callsign | N4JP |
|---|---|
| Flight time | N/A |
| Altitude | 43000 |
| Route | BUFTT1 MATLK Q87 ZERBO/N0478F450 Q87 ALWZZ OGRAE Q99 QUART PHLBO4 |
| Aircraft | C750/M-SBDE3FGHRWXY/S |
Departure
| Time | N/A |
|---|---|
| Airport | Key West International Airport (KEYW) |
Arrival
| Time | 2026-05-06 01:50 |
|---|---|
| Airport | Newark Liberty International Airport (KEWR) |
| Time | Latitude | Longitude | Altitude | Speed | Heading |
|---|---|---|---|---|---|
| 2026-05-06 00:53 | 36.87518 | -78.23352 | 44989 ft | 511 kts | 24° |
| 2026-05-06 00:53 | 36.93537 | -78.18585 | 44973 ft | 511 kts | 25° |
| 2026-05-06 00:54 | 36.99541 | -78.13816 | 44972 ft | 511 kts | 25° |
| 2026-05-06 00:54 | 37.05541 | -78.09044 | 44983 ft | 510 kts | 25° |
| 2026-05-06 00:55 | 37.11503 | -78.04293 | 44990 ft | 510 kts | 25° |
| 2026-05-06 00:55 | 37.17492 | -77.99511 | 44980 ft | 510 kts | 25° |
| 2026-05-06 00:56 | 37.23482 | -77.94718 | 44994 ft | 509 kts | 25° |
| 2026-05-06 00:56 | 37.29454 | -77.89932 | 44990 ft | 509 kts | 25° |
| 2026-05-06 00:57 | 37.35432 | -77.85131 | 44990 ft | 509 kts | 25° |
| 2026-05-06 00:57 | 37.41351 | -77.80369 | 44991 ft | 508 kts | 25° |
| 2026-05-06 00:58 | 37.47306 | -77.75569 | 44993 ft | 508 kts | 25° |
| 2026-05-06 00:58 | 37.53253 | -77.70765 | 44991 ft | 507 kts | 25° |
| 2026-05-06 00:59 | 37.59196 | -77.65974 | 44997 ft | 506 kts | 25° |
| 2026-05-06 00:59 | 37.65126 | -77.61180 | 44998 ft | 506 kts | 25° |
| 2026-05-06 01:00 | 37.71051 | -77.56381 | 44999 ft | 505 kts | 25° |
| 2026-05-06 01:00 | 37.76965 | -77.51584 | 45001 ft | 505 kts | 25° |
| 2026-05-06 01:01 | 37.82878 | -77.46776 | 44992 ft | 504 kts | 25° |
| 2026-05-06 01:01 | 37.88775 | -77.41973 | 44992 ft | 504 kts | 25° |
| 2026-05-06 01:02 | 37.94693 | -77.37200 | 44988 ft | 503 kts | 24° |
| 2026-05-06 01:02 | 38.00464 | -77.32214 | 44958 ft | 506 kts | 27° |
| 2026-05-06 01:03 | 38.06071 | -77.26702 | 44946 ft | 510 kts | 30° |
| 2026-05-06 01:03 | 38.11749 | -77.21372 | 44940 ft | 508 kts | 27° |
| 2026-05-06 01:04 | 38.17407 | -77.15940 | 44954 ft | 509 kts | 29° |
| 2026-05-06 01:04 | 38.23064 | -77.10526 | 44951 ft | 508 kts | 28° |
| 2026-05-06 01:05 | 38.28720 | -77.05116 | 44935 ft | 510 kts | 29° |
| 2026-05-06 01:05 | 38.34375 | -76.99666 | 44939 ft | 509 kts | 28° |
| 2026-05-06 01:06 | 38.40042 | -76.94226 | 44938 ft | 511 kts | 29° |
| 2026-05-06 01:06 | 38.45673 | -76.88779 | 44929 ft | 511 kts | 29° |
| 2026-05-06 01:07 | 38.51346 | -76.83307 | 44921 ft | 512 kts | 29° |
| 2026-05-06 01:07 | 38.54204 | -76.80541 | 44246 ft | 520 kts | 29° |
| 2026-05-06 01:07 | 38.57057 | -76.77769 | 43588 ft | 512 kts | 29° |
| 2026-05-06 01:07 | 38.59875 | -76.75022 | 42916 ft | 503 kts | 29° |
| 2026-05-06 01:08 | 38.62643 | -76.72336 | 42262 ft | 495 kts | 28° |
| 2026-05-06 01:08 | 38.65365 | -76.69699 | 41618 ft | 487 kts | 28° |
| 2026-05-06 01:08 | 38.68045 | -76.67092 | 40982 ft | 480 kts | 28° |
| 2026-05-06 01:08 | 38.70680 | -76.64521 | 40356 ft | 472 kts | 28° |
| 2026-05-06 01:09 | 38.73271 | -76.61993 | 39740 ft | 465 kts | 28° |
| 2026-05-06 01:09 | 38.75825 | -76.59504 | 39137 ft | 458 kts | 28° |
| 2026-05-06 01:09 | 38.78340 | -76.57051 | 38527 ft | 452 kts | 28° |
| 2026-05-06 01:09 | 38.80816 | -76.54630 | 37898 ft | 445 kts | 28° |
| 2026-05-06 01:10 | 38.83261 | -76.52236 | 37319 ft | 440 kts | 29° |
| 2026-05-06 01:10 | 38.85681 | -76.49871 | 36744 ft | 437 kts | 29° |
| 2026-05-06 01:10 | 38.88111 | -76.47493 | 36178 ft | 437 kts | 30° |
| 2026-05-06 01:10 | 38.90495 | -76.45155 | 35610 ft | 437 kts | 30° |
| 2026-05-06 01:11 | 38.92914 | -76.42777 | 35034 ft | 438 kts | 31° |
| 2026-05-06 01:11 | 38.95336 | -76.40398 | 34461 ft | 442 kts | 31° |
| 2026-05-06 01:11 | 38.97863 | -76.37928 | 33859 ft | 471 kts | 32° |
| 2026-05-06 01:11 | 39.00550 | -76.35292 | 33188 ft | 499 kts | 33° |
| 2026-05-06 01:12 | 39.03325 | -76.32538 | 32520 ft | 505 kts | 33° |
| 2026-05-06 01:12 | 39.06095 | -76.29783 | 31844 ft | 501 kts | 33° |
| 2026-05-06 01:12 | 39.08902 | -76.27025 | 31177 ft | 517 kts | 33° |
| 2026-05-06 01:12 | 39.11775 | -76.24206 | 30479 ft | 522 kts | 34° |
| 2026-05-06 01:13 | 39.14662 | -76.21338 | 29758 ft | 524 kts | 34° |
| 2026-05-06 01:13 | 39.17565 | -76.18444 | 29052 ft | 528 kts | 34° |
| 2026-05-06 01:13 | 39.20472 | -76.15566 | 28356 ft | 526 kts | 34° |
| 2026-05-06 01:13 | 39.23365 | -76.12705 | 27665 ft | 522 kts | 34° |
| 2026-05-06 01:14 | 39.28874 | -76.06799 | 26603 ft | 515 kts | 40° |
| 2026-05-06 01:14 | 39.31530 | -76.03657 | 26175 ft | 518 kts | 40° |
| 2026-05-06 01:14 | 39.34205 | -76.00547 | 25724 ft | 516 kts | 40° |
| 2026-05-06 01:15 | 39.36859 | -75.97443 | 25272 ft | 514 kts | 40° |
| 2026-05-06 01:15 | 39.39492 | -75.94317 | 24814 ft | 512 kts | 41° |
| 2026-05-06 01:15 | 39.42113 | -75.91206 | 24368 ft | 511 kts | 41° |
| 2026-05-06 01:15 | 39.44738 | -75.88116 | 23921 ft | 509 kts | 41° |
| 2026-05-06 01:16 | 39.47352 | -75.85039 | 23470 ft | 508 kts | 41° |
| 2026-05-06 01:16 | 39.49952 | -75.81954 | 22977 ft | 503 kts | 41° |
| 2026-05-06 01:16 | 39.52519 | -75.78900 | 22535 ft | 500 kts | 41° |
| 2026-05-06 01:16 | 39.55073 | -75.75873 | 22103 ft | 496 kts | 41° |
| 2026-05-06 01:17 | 39.57583 | -75.72899 | 21673 ft | 493 kts | 41° |
| 2026-05-06 01:17 | 39.60099 | -75.69906 | 21239 ft | 489 kts | 41° |
| 2026-05-06 01:17 | 39.62597 | -75.66929 | 20813 ft | 486 kts | 41° |
| 2026-05-06 01:17 | 39.65080 | -75.63970 | 20388 ft | 483 kts | 41° |
| 2026-05-06 01:18 | 39.67547 | -75.61031 | 19956 ft | 480 kts | 41° |
| 2026-05-06 01:18 | 39.70001 | -75.58097 | 19031 ft | 478 kts | 41° |
| 2026-05-06 01:18 | 39.72401 | -75.55197 | 18316 ft | 465 kts | 42° |
| 2026-05-06 01:18 | 39.74750 | -75.52357 | 17821 ft | 459 kts | 42° |
| 2026-05-06 01:19 | 39.77093 | -75.49539 | 17462 ft | 458 kts | 41° |
| 2026-05-06 01:19 | 39.79428 | -75.46729 | 17049 ft | 457 kts | 41° |
| 2026-05-06 01:19 | 39.81753 | -75.43917 | 16631 ft | 454 kts | 41° |
| 2026-05-06 01:19 | 39.84054 | -75.41130 | 16212 ft | 451 kts | 41° |
| 2026-05-06 01:20 | 39.86346 | -75.38357 | 15800 ft | 447 kts | 41° |
| 2026-05-06 01:20 | 39.88615 | -75.35613 | 15387 ft | 444 kts | 41° |
| 2026-05-06 01:20 | 39.90864 | -75.32885 | 14981 ft | 441 kts | 41° |
| 2026-05-06 01:20 | 39.92350 | -75.31081 | 14712 ft | 439 kts | 41° |
| 2026-05-06 01:21 | 39.94576 | -75.28377 | 14306 ft | 436 kts | 42° |
| 2026-05-06 01:21 | 39.97508 | -75.24814 | 13777 ft | 433 kts | 42° |
| 2026-05-06 01:21 | 39.99697 | -75.22149 | 13345 ft | 429 kts | 42° |
| 2026-05-06 01:21 | 40.01872 | -75.19500 | 12940 ft | 425 kts | 42° |
| 2026-05-06 01:22 | 40.04025 | -75.16874 | 12554 ft | 422 kts | 41° |
| 2026-05-06 01:22 | 40.05471 | -75.15109 | 12302 ft | 420 kts | 41° |
| 2026-05-06 01:22 | 40.07569 | -75.12549 | 11925 ft | 416 kts | 41° |
| 2026-05-06 01:22 | 40.09656 | -75.09996 | 11541 ft | 398 kts | 41° |
| 2026-05-06 01:23 | 40.11603 | -75.07610 | 11178 ft | 369 kts | 41° |
| 2026-05-06 01:23 | 40.13408 | -75.05400 | 10844 ft | 344 kts | 41° |
| 2026-05-06 01:23 | 40.15101 | -75.03328 | 10534 ft | 324 kts | 41° |
| 2026-05-06 01:23 | 40.16700 | -75.01368 | 10241 ft | 307 kts | 41° |
| 2026-05-06 01:24 | 40.18241 | -74.99479 | 9965 ft | 301 kts | 41° |
| 2026-05-06 01:24 | 40.19764 | -74.97611 | 9682 ft | 300 kts | 41° |
| 2026-05-06 01:24 | 40.21297 | -74.95730 | 9382 ft | 302 kts | 40° |
| 2026-05-06 01:24 | 40.22838 | -74.93835 | 9109 ft | 305 kts | 41° |
| 2026-05-06 01:25 | 40.24394 | -74.91921 | 8831 ft | 309 kts | 41° |
| 2026-05-06 01:25 | 40.25898 | -74.89948 | 8533 ft | 310 kts | 46° |
| 2026-05-06 01:25 | 40.27357 | -74.87861 | 8261 ft | 311 kts | 44° |
| 2026-05-06 01:25 | 40.28863 | -74.85816 | 7997 ft | 311 kts | 44° |
| 2026-05-06 01:26 | 40.30328 | -74.83787 | 7986 ft | 304 kts | 45° |
| 2026-05-06 01:26 | 40.31774 | -74.81736 | 7992 ft | 309 kts | 45° |
| 2026-05-06 01:26 | 40.33241 | -74.79665 | 7999 ft | 310 kts | 45° |
| 2026-05-06 01:26 | 40.34717 | -74.77596 | 8001 ft | 311 kts | 45° |
| 2026-05-06 01:27 | 40.36189 | -74.75530 | 7997 ft | 310 kts | 45° |
| 2026-05-06 01:27 | 40.37660 | -74.73456 | 7997 ft | 311 kts | 45° |
| 2026-05-06 01:27 | 40.39141 | -74.71370 | 7995 ft | 312 kts | 45° |
| 2026-05-06 01:27 | 40.40614 | -74.69293 | 7991 ft | 311 kts | 45° |
| 2026-05-06 01:28 | 40.42196 | -74.67372 | 7913 ft | 309 kts | 30° |
| 2026-05-06 01:28 | 40.44166 | -74.66422 | 7921 ft | 298 kts | 8° |
| 2026-05-06 01:28 | 40.46212 | -74.65885 | 7968 ft | 301 kts | 6° |
| 2026-05-06 01:28 | 40.48241 | -74.65372 | 7963 ft | 300 kts | 6° |
| 2026-05-06 01:29 | 40.50288 | -74.64821 | 7965 ft | 300 kts | 7° |
| 2026-05-06 01:29 | 40.52342 | -74.64262 | 7825 ft | 304 kts | 7° |
| 2026-05-06 01:29 | 40.54421 | -74.63707 | 7529 ft | 305 kts | 6° |
| 2026-05-06 01:29 | 40.56494 | -74.63153 | 7233 ft | 302 kts | 6° |
| 2026-05-06 01:30 | 40.58549 | -74.62602 | 6941 ft | 301 kts | 6° |
| 2026-05-06 01:30 | 40.60595 | -74.62054 | 6646 ft | 300 kts | 6° |
| 2026-05-06 01:30 | 40.62579 | -74.61523 | 6356 ft | 300 kts | 6° |
| 2026-05-06 01:30 | 40.64616 | -74.60976 | 6071 ft | 298 kts | 6° |
| 2026-05-06 01:31 | 40.66635 | -74.60433 | 5947 ft | 292 kts | 6° |
| 2026-05-06 01:31 | 40.68620 | -74.59899 | 5948 ft | 293 kts | 6° |
| 2026-05-06 01:31 | 40.70640 | -74.59361 | 5959 ft | 295 kts | 6° |
| 2026-05-06 01:31 | 40.72666 | -74.58816 | 5964 ft | 298 kts | 6° |
| 2026-05-06 01:32 | 40.74700 | -74.58266 | 5962 ft | 297 kts | 6° |
| 2026-05-06 01:32 | 40.76733 | -74.57719 | 5971 ft | 300 kts | 6° |
| 2026-05-06 01:32 | 40.78777 | -74.57169 | 5976 ft | 300 kts | 6° |
| 2026-05-06 01:32 | 40.80785 | -74.56627 | 5978 ft | 298 kts | 6° |
| 2026-05-06 01:33 | 40.82825 | -74.56078 | 5972 ft | 300 kts | 6° |
| 2026-05-06 01:33 | 40.84869 | -74.55517 | 5970 ft | 299 kts | 6° |
| 2026-05-06 01:33 | 40.86862 | -74.54720 | 5899 ft | 307 kts | 24° |
| 2026-05-06 01:33 | 40.88400 | -74.52784 | 5857 ft | 311 kts | 58° |
| 2026-05-06 01:34 | 40.89201 | -74.50129 | 5713 ft | 314 kts | 75° |
| 2026-05-06 01:34 | 40.89771 | -74.47349 | 5526 ft | 313 kts | 77° |
| 2026-05-06 01:34 | 40.90320 | -74.44582 | 5302 ft | 310 kts | 77° |
| 2026-05-06 01:34 | 40.90870 | -74.41833 | 5085 ft | 307 kts | 77° |
| 2026-05-06 01:35 | 40.91419 | -74.39109 | 4960 ft | 303 kts | 78° |
| 2026-05-06 01:35 | 40.91969 | -74.36436 | 4944 ft | 302 kts | 77° |
| 2026-05-06 01:35 | 40.92527 | -74.33711 | 4695 ft | 311 kts | 77° |
| 2026-05-06 01:35 | 40.92792 | -74.31033 | 4335 ft | 302 kts | 99° |
| 2026-05-06 01:36 | 40.92334 | -74.28570 | 3953 ft | 282 kts | 116° |
| 2026-05-06 01:36 | 40.91711 | -74.26255 | 3963 ft | 255 kts | 117° |
| 2026-05-06 01:36 | 40.91163 | -74.24132 | 3956 ft | 234 kts | 117° |
| 2026-05-06 01:36 | 40.90657 | -74.22123 | 3957 ft | 228 kts | 117° |
| 2026-05-06 01:37 | 40.90175 | -74.20187 | 3956 ft | 220 kts | 117° |
| 2026-05-06 01:37 | 40.89699 | -74.18256 | 3960 ft | 224 kts | 117° |
| 2026-05-06 01:37 | 40.89203 | -74.16268 | 3947 ft | 230 kts | 117° |
| 2026-05-06 01:37 | 40.88698 | -74.14245 | 3952 ft | 233 kts | 117° |
| 2026-05-06 01:38 | 40.88200 | -74.12267 | 3954 ft | 234 kts | 117° |
| 2026-05-06 01:38 | 40.87682 | -74.10225 | 3959 ft | 236 kts | 117° |
| 2026-05-06 01:38 | 40.87151 | -74.08164 | 3959 ft | 236 kts | 117° |
| 2026-05-06 01:38 | 40.86616 | -74.06104 | 3959 ft | 238 kts | 117° |
| 2026-05-06 01:39 | 40.86084 | -74.04053 | 3964 ft | 230 kts | 117° |
| 2026-05-06 01:39 | 40.85595 | -74.02118 | 3939 ft | 214 kts | 117° |
| 2026-05-06 01:39 | 40.85165 | -74.00331 | 3936 ft | 196 kts | 117° |
| 2026-05-06 01:39 | 40.84773 | -73.98646 | 3945 ft | 188 kts | 117° |
| 2026-05-06 01:40 | 40.84397 | -73.97010 | 3944 ft | 185 kts | 117° |
| 2026-05-06 01:40 | 40.84038 | -73.95439 | 3945 ft | 185 kts | 117° |
| 2026-05-06 01:40 | 40.83665 | -73.93815 | 3977 ft | 189 kts | 117° |
| 2026-05-06 01:40 | 40.83278 | -73.92146 | 3984 ft | 192 kts | 117° |
| 2026-05-06 01:41 | 40.82876 | -73.90434 | 3992 ft | 194 kts | 117° |
| 2026-05-06 01:41 | 40.82478 | -73.88756 | 3988 ft | 194 kts | 117° |
| 2026-05-06 01:41 | 40.81829 | -73.87331 | 3863 ft | 170 kts | 157° |
| 2026-05-06 01:41 | 40.80841 | -73.87212 | 3838 ft | 133 kts | 216° |
| 2026-05-06 01:42 | 40.80413 | -73.88365 | 3992 ft | 158 kts | 256° |
| 2026-05-06 01:42 | 40.80493 | -73.89859 | 4072 ft | 169 kts | 275° |
| 2026-05-06 01:42 | 40.80818 | -73.91337 | 4027 ft | 168 kts | 277° |
| 2026-05-06 01:42 | 40.81139 | -73.92814 | 3995 ft | 166 kts | 277° |
| 2026-05-06 01:43 | 40.81462 | -73.94273 | 3991 ft | 164 kts | 277° |
| 2026-05-06 01:43 | 40.81780 | -73.95727 | 3970 ft | 167 kts | 277° |
| 2026-05-06 01:43 | 40.82098 | -73.97246 | 3638 ft | 173 kts | 273° |
| 2026-05-06 01:43 | 40.82233 | -73.98805 | 3252 ft | 170 kts | 266° |
| 2026-05-06 01:44 | 40.82348 | -74.00332 | 2876 ft | 161 kts | 266° |
| 2026-05-06 01:44 | 40.82490 | -74.01712 | 2653 ft | 145 kts | 266° |
| 2026-05-06 01:44 | 40.82639 | -74.02993 | 2429 ft | 139 kts | 266° |
| 2026-05-06 01:44 | 40.82792 | -74.04240 | 2213 ft | 137 kts | 266° |
| 2026-05-06 01:45 | 40.82854 | -74.05425 | 1944 ft | 120 kts | 250° |
| 2026-05-06 01:45 | 40.82463 | -74.06244 | 1918 ft | 100 kts | 222° |
| 2026-05-06 01:45 | 40.81947 | -74.06920 | 1961 ft | 113 kts | 224° |
| 2026-05-06 01:45 | 40.81361 | -74.07724 | 1963 ft | 124 kts | 224° |
| 2026-05-06 01:46 | 40.80757 | -74.08544 | 1961 ft | 125 kts | 224° |
| 2026-05-06 01:46 | 40.80151 | -74.09306 | 1954 ft | 119 kts | 218° |
| 2026-05-06 01:46 | 40.79484 | -74.09832 | 1947 ft | 111 kts | 211° |
| 2026-05-06 01:46 | 40.78776 | -74.10343 | 1899 ft | 121 kts | 210° |
| 2026-05-06 01:47 | 40.78048 | -74.10837 | 1750 ft | 117 kts | 209° |
| 2026-05-06 01:47 | 40.77323 | -74.11321 | 1601 ft | 114 kts | 208° |
| 2026-05-06 01:47 | 40.76605 | -74.11782 | 1469 ft | 116 kts | 208° |
| 2026-05-06 01:47 | 40.75870 | -74.12250 | 1298 ft | 116 kts | 206° |
| 2026-05-06 01:48 | 40.75150 | -74.12714 | 1241 ft | 116 kts | 207° |
| 2026-05-06 01:48 | 40.74451 | -74.13175 | 1086 ft | 109 kts | 207° |
| 2026-05-06 01:48 | 40.73786 | -74.13590 | 917 ft | 105 kts | 204° |
| 2026-05-06 01:48 | 40.73124 | -74.14012 | 748 ft | 108 kts | 207° |
| 2026-05-06 01:49 | 40.72411 | -74.14451 | 594 ft | 118 kts | 204° |
| 2026-05-06 01:49 | 40.71675 | -74.14929 | 455 ft | 116 kts | 204° |
| 2026-05-06 01:49 | 40.71021 | -74.15355 | 328 ft | 109 kts | 205° |
| 2026-05-06 01:49 | 40.70353 | -74.15776 | 168 ft | 104 kts | 205° |
| 2026-05-06 01:50 | 40.69712 | -74.16183 | 30 ft | 100 kts | 204° |
| 2026-05-06 01:50 | 40.69172 | -74.16530 | 19 ft | 61 kts | 205° |
| 2026-05-06 01:50 | 40.68948 | -74.16668 | 17 ft | 21 kts | 205° |
| 2026-05-06 01:50 | 40.68837 | -74.16742 | 16 ft | 22 kts | 213° |
| 2026-05-06 01:51 | 40.68725 | -74.16900 | 17 ft | 20 kts | 236° |
| 2026-05-06 01:51 | 40.68665 | -74.17019 | 17 ft | 10 kts | 237° |
| 2026-05-06 01:51 | 40.68639 | -74.17073 | 17 ft | 0 kts | 240° |
| 2026-05-06 01:51 | 40.68640 | -74.17077 | 17 ft | 0 kts | 278° |
| 2026-05-06 01:52 | 40.68649 | -74.17081 | 17 ft | 2 kts | 356° |
| 2026-05-06 01:52 | 40.68660 | -74.17075 | 17 ft | 1 kts | 26° |
| 2026-05-06 01:52 | 40.68665 | -74.17072 | 17 ft | 1 kts | 25° |
| 2026-05-06 01:52 | 40.68676 | -74.17065 | 17 ft | 5 kts | 26° |
| 2026-05-06 01:53 | 40.68744 | -74.17020 | 17 ft | 17 kts | 26° |
| 2026-05-06 01:53 | 40.68882 | -74.16926 | 16 ft | 28 kts | 28° |
| 2026-05-06 01:53 | 40.69080 | -74.16800 | 17 ft | 33 kts | 22° |
| 2026-05-06 01:53 | 40.69279 | -74.16678 | 19 ft | 31 kts | 26° |
| 2026-05-06 01:54 | 40.69468 | -74.16558 | 17 ft | 30 kts | 26° |
| 2026-05-06 01:54 | 40.69657 | -74.16439 | 16 ft | 30 kts | 26° |
| 2026-05-06 01:54 | 40.69833 | -74.16324 | 16 ft | 27 kts | 26° |
| 2026-05-06 01:54 | 40.69990 | -74.16221 | 16 ft | 23 kts | 22° |
| 2026-05-06 01:55 | 40.70126 | -74.16138 | 15 ft | 21 kts | 26° |
| 2026-05-06 01:55 | 40.70255 | -74.16099 | 16 ft | 18 kts | 316° |
| 2026-05-06 01:55 | 40.70263 | -74.16248 | 16 ft | 16 kts | 272° |
| 2026-05-06 01:55 | 40.70278 | -74.16398 | 16 ft | 17 kts | 277° |
| 2026-05-06 01:56 | 40.70290 | -74.16554 | 18 ft | 17 kts | 277° |
| 2026-05-06 01:56 | 40.70300 | -74.16705 | 17 ft | 16 kts | 275° |
| 2026-05-06 01:56 | 40.70326 | -74.16817 | 17 ft | 11 kts | 340° |
| 2026-05-06 01:56 | 40.70406 | -74.16824 | 17 ft | 12 kts | 352° |
| 2026-05-06 01:57 | 40.70480 | -74.16858 | 19 ft | 11 kts | 324° |
| 2026-05-06 01:57 | 40.70542 | -74.16923 | 17 ft | 11 kts | 305° |
| 2026-05-06 01:57 | 40.70581 | -74.16982 | 17 ft | 5 kts | 345° |
| 2026-05-06 01:57 | 40.70601 | -74.16981 | 17 ft | 0 kts | 4° |